sensor_id;sensor_type;location;lat;lon;timestamp;P1;durP1;ratioP1;P2;durP2;ratioP2
44169;SDS011;29836;52.286;9.576;2022-12-15T00:00:45;9.00;;;4.78;;
44169;SDS011;29836;52.286;9.576;2022-12-15T00:03:29;6.90;;;3.72;;
44169;SDS011;29836;52.286;9.576;2022-12-15T00:06:13;9.32;;;4.25;;
44169;SDS011;29836;52.286;9.576;2022-12-15T00:08:57;7.90;;;3.60;;
44169;SDS011;29836;52.286;9.576;2022-12-15T00:11:41;8.32;;;4.40;;
44169;SDS011;29836;52.286;9.576;2022-12-15T00:14:25;6.28;;;3.58;;
44169;SDS011;29836;52.286;9.576;2022-12-15T00:17:09;6.85;;;3.15;;
44169;SDS011;29836;52.286;9.576;2022-12-15T00:19:53;7.35;;;3.38;;
44169;SDS011;29836;52.286;9.576;2022-12-15T00:22:37;9.20;;;3.20;;
44169;SDS011;29836;52.286;9.576;2022-12-15T00:25:21;15.00;;;3.75;;
44169;SDS011;29836;52.286;9.576;2022-12-15T00:28:06;13.20;;;3.60;;
44169;SDS011;29836;52.286;9.576;2022-12-15T00:30:50;7.97;;;3.92;;
44169;SDS011;29836;52.286;9.576;2022-12-15T00:33:34;7.32;;;3.17;;
44169;SDS011;29836;52.286;9.576;2022-12-15T00:36:18;10.82;;;3.97;;
44169;SDS011;29836;52.286;9.576;2022-12-15T00:39:02;9.65;;;3.65;;
44169;SDS011;29836;52.286;9.576;2022-12-15T00:41:27;8.27;;;3.70;;
44169;SDS011;29836;52.286;9.576;2022-12-15T00:43:53;8.60;;;3.30;;
44169;SDS011;29836;52.286;9.576;2022-12-15T00:46:19;8.13;;;3.63;;
44169;SDS011;29836;52.286;9.576;2022-12-15T00:49:03;7.95;;;2.88;;
44169;SDS011;29836;52.286;9.576;2022-12-15T00:51:48;5.05;;;4.03;;
44169;SDS011;29836;52.286;9.576;2022-12-15T00:54:32;7.30;;;4.38;;
44169;SDS011;29836;52.286;9.576;2022-12-15T00:57:16;7.38;;;3.80;;
44169;SDS011;29836;52.286;9.576;2022-12-15T01:00:00;7.15;;;2.85;;
44169;SDS011;29836;52.286;9.576;2022-12-15T01:02:45;5.10;;;2.97;;
44169;SDS011;29836;52.286;9.576;2022-12-15T01:05:29;6.35;;;3.00;;
44169;SDS011;29836;52.286;9.576;2022-12-15T01:08:13;6.35;;;3.60;;
44169;SDS011;29836;52.286;9.576;2022-12-15T01:10:59;7.72;;;3.35;;
44169;SDS011;29836;52.286;9.576;2022-12-15T01:13:43;8.90;;;4.15;;
44169;SDS011;29836;52.286;9.576;2022-12-15T01:16:27;5.07;;;2.72;;
44169;SDS011;29836;52.286;9.576;2022-12-15T01:19:11;4.55;;;2.55;;
44169;SDS011;29836;52.286;9.576;2022-12-15T01:21:55;8.02;;;3.75;;
44169;SDS011;29836;52.286;9.576;2022-12-15T01:24:21;5.95;;;2.83;;
44169;SDS011;29836;52.286;9.576;2022-12-15T01:26:47;5.75;;;3.08;;
44169;SDS011;29836;52.286;9.576;2022-12-15T01:29:12;7.53;;;3.25;;
44169;SDS011;29836;52.286;9.576;2022-12-15T01:31:38;6.82;;;3.50;;
44169;SDS011;29836;52.286;9.576;2022-12-15T01:34:03;8.35;;;3.22;;
44169;SDS011;29836;52.286;9.576;2022-12-15T01:36:29;7.97;;;2.92;;
44169;SDS011;29836;52.286;9.576;2022-12-15T01:38:54;9.27;;;3.10;;
44169;SDS011;29836;52.286;9.576;2022-12-15T01:41:20;5.72;;;3.42;;
44169;SDS011;29836;52.286;9.576;2022-12-15T01:43:46;5.10;;;2.42;;
44169;SDS011;29836;52.286;9.576;2022-12-15T01:46:15;7.57;;;3.45;;
44169;SDS011;29836;52.286;9.576;2022-12-15T01:56:56;4.95;;;2.70;;
44169;SDS011;29836;52.286;9.576;2022-12-15T01:59:30;6.80;;;3.05;;
44169;SDS011;29836;52.286;9.576;2022-12-15T02:01:59;5.35;;;3.20;;
44169;SDS011;29836;52.286;9.576;2022-12-15T02:04:25;5.60;;;2.17;;
44169;SDS011;29836;52.286;9.576;2022-12-15T02:06:51;7.55;;;3.28;;
44169;SDS011;29836;52.286;9.576;2022-12-15T02:09:17;7.63;;;2.30;;
44169;SDS011;29836;52.286;9.576;2022-12-15T02:11:48;4.95;;;2.42;;
44169;SDS011;29836;52.286;9.576;2022-12-15T02:14:31;4.60;;;3.38;;
44169;SDS011;29836;52.286;9.576;2022-12-15T02:17:28;5.05;;;2.45;;
44169;SDS011;29836;52.286;9.576;2022-12-15T02:25:18;6.90;;;2.85;;
44169;SDS011;29836;52.286;9.576;2022-12-15T02:27:51;6.28;;;3.72;;
44169;SDS011;29836;52.286;9.576;2022-12-15T02:33:03;6.25;;;2.90;;
44169;SDS011;29836;52.286;9.576;2022-12-15T02:35:49;7.28;;;3.75;;
44169;SDS011;29836;52.286;9.576;2022-12-15T02:38:28;4.72;;;2.83;;
44169;SDS011;29836;52.286;9.576;2022-12-15T02:40:59;5.53;;;3.25;;
44169;SDS011;29836;52.286;9.576;2022-12-15T02:43:26;7.32;;;3.67;;
44169;SDS011;29836;52.286;9.576;2022-12-15T02:46:01;6.10;;;2.95;;
44169;SDS011;29836;52.286;9.576;2022-12-15T02:48:59;9.50;;;4.00;;
44169;SDS011;29836;52.286;9.576;2022-12-15T02:57:23;7.10;;;2.90;;
44169;SDS011;29836;52.286;9.576;2022-12-15T02:59:44;7.57;;;2.58;;
44169;SDS011;29836;52.286;9.576;2022-12-15T03:02:21;6.38;;;3.03;;
44169;SDS011;29836;52.286;9.576;2022-12-15T03:04:50;7.90;;;4.68;;
44169;SDS011;29836;52.286;9.576;2022-12-15T03:07:16;5.93;;;2.55;;
44169;SDS011;29836;52.286;9.576;2022-12-15T03:09:41;6.45;;;3.22;;
44169;SDS011;29836;52.286;9.576;2022-12-15T03:12:07;6.10;;;2.55;;
44169;SDS011;29836;52.286;9.576;2022-12-15T03:14:34;4.85;;;2.47;;
44169;SDS011;29836;52.286;9.576;2022-12-15T03:17:00;6.93;;;2.67;;
44169;SDS011;29836;52.286;9.576;2022-12-15T03:19:26;4.78;;;3.05;;
44169;SDS011;29836;52.286;9.576;2022-12-15T03:21:51;6.85;;;3.00;;
44169;SDS011;29836;52.286;9.576;2022-12-15T03:24:17;3.33;;;2.00;;
44169;SDS011;29836;52.286;9.576;2022-12-15T03:26:43;7.22;;;3.38;;
44169;SDS011;29836;52.286;9.576;2022-12-15T03:29:12;8.27;;;3.28;;
44169;SDS011;29836;52.286;9.576;2022-12-15T03:31:38;7.30;;;3.42;;
44169;SDS011;29836;52.286;9.576;2022-12-15T03:34:03;8.20;;;3.85;;
44169;SDS011;29836;52.286;9.576;2022-12-15T03:36:29;9.10;;;3.90;;
44169;SDS011;29836;52.286;9.576;2022-12-15T03:38:54;4.47;;;2.58;;
44169;SDS011;29836;52.286;9.576;2022-12-15T03:41:20;6.82;;;3.05;;
44169;SDS011;29836;52.286;9.576;2022-12-15T03:43:45;7.32;;;3.10;;
44169;SDS011;29836;52.286;9.576;2022-12-15T03:46:11;5.97;;;3.05;;
44169;SDS011;29836;52.286;9.576;2022-12-15T03:48:36;10.13;;;4.15;;
44169;SDS011;29836;52.286;9.576;2022-12-15T03:51:02;8.55;;;2.83;;
44169;SDS011;29836;52.286;9.576;2022-12-15T03:53:27;6.80;;;2.95;;
44169;SDS011;29836;52.286;9.576;2022-12-15T03:55:53;9.13;;;3.30;;
44169;SDS011;29836;52.286;9.576;2022-12-15T03:58:19;6.88;;;3.70;;
44169;SDS011;29836;52.286;9.576;2022-12-15T04:00:45;6.95;;;4.07;;
44169;SDS011;29836;52.286;9.576;2022-12-15T04:03:10;4.80;;;2.92;;
44169;SDS011;29836;52.286;9.576;2022-12-15T04:05:37;5.43;;;2.97;;
44169;SDS011;29836;52.286;9.576;2022-12-15T04:08:03;7.35;;;3.92;;
44169;SDS011;29836;52.286;9.576;2022-12-15T04:10:30;6.65;;;3.97;;
44169;SDS011;29836;52.286;9.576;2022-12-15T04:13:01;6.85;;;3.45;;
44169;SDS011;29836;52.286;9.576;2022-12-15T04:15:29;8.05;;;3.88;;
44169;SDS011;29836;52.286;9.576;2022-12-15T04:17:54;9.48;;;3.75;;
44169;SDS011;29836;52.286;9.576;2022-12-15T04:20:20;5.93;;;2.88;;
44169;SDS011;29836;52.286;9.576;2022-12-15T04:22:47;7.88;;;2.45;;
44169;SDS011;29836;52.286;9.576;2022-12-15T04:25:15;7.18;;;3.47;;
44169;SDS011;29836;52.286;9.576;2022-12-15T04:28:01;5.78;;;3.25;;
44169;SDS011;29836;52.286;9.576;2022-12-15T04:30:47;7.88;;;3.17;;
44169;SDS011;29836;52.286;9.576;2022-12-15T04:33:41;13.35;;;3.53;;
44169;SDS011;29836;52.286;9.576;2022-12-15T04:36:27;8.70;;;2.92;;
44169;SDS011;29836;52.286;9.576;2022-12-15T04:39:13;5.55;;;3.60;;
44169;SDS011;29836;52.286;9.576;2022-12-15T04:41:57;8.23;;;3.53;;
44169;SDS011;29836;52.286;9.576;2022-12-15T04:44:44;6.65;;;3.15;;
44169;SDS011;29836;52.286;9.576;2022-12-15T04:47:30;9.65;;;4.07;;
44169;SDS011;29836;52.286;9.576;2022-12-15T04:50:14;8.98;;;3.50;;
44169;SDS011;29836;52.286;9.576;2022-12-15T04:53:08;7.85;;;3.65;;
44169;SDS011;29836;52.286;9.576;2022-12-15T04:55:54;6.07;;;3.35;;
44169;SDS011;29836;52.286;9.576;2022-12-15T04:58:38;8.18;;;3.85;;
44169;SDS011;29836;52.286;9.576;2022-12-15T05:01:22;8.27;;;3.67;;
44169;SDS011;29836;52.286;9.576;2022-12-15T05:04:06;9.98;;;4.47;;
44169;SDS011;29836;52.286;9.576;2022-12-15T05:06:50;7.00;;;2.95;;
44169;SDS011;29836;52.286;9.576;2022-12-15T05:09:34;9.43;;;4.32;;
44169;SDS011;29836;52.286;9.576;2022-12-15T05:12:18;6.88;;;3.13;;
44169;SDS011;29836;52.286;9.576;2022-12-15T05:15:02;10.20;;;3.88;;
44169;SDS011;29836;52.286;9.576;2022-12-15T05:17:47;7.43;;;4.20;;
44169;SDS011;29836;52.286;9.576;2022-12-15T05:20:31;8.27;;;4.38;;
44169;SDS011;29836;52.286;9.576;2022-12-15T05:23:15;7.72;;;4.03;;
44169;SDS011;29836;52.286;9.576;2022-12-15T05:25:59;6.45;;;3.00;;
44169;SDS011;29836;52.286;9.576;2022-12-15T05:28:43;6.50;;;2.88;;
44169;SDS011;29836;52.286;9.576;2022-12-15T05:31:28;9.23;;;5.32;;
44169;SDS011;29836;52.286;9.576;2022-12-15T05:34:12;5.85;;;3.28;;
44169;SDS011;29836;52.286;9.576;2022-12-15T05:36:37;8.18;;;4.00;;
44169;SDS011;29836;52.286;9.576;2022-12-15T05:39:03;7.50;;;3.33;;
44169;SDS011;29836;52.286;9.576;2022-12-15T05:41:28;9.20;;;4.22;;
44169;SDS011;29836;52.286;9.576;2022-12-15T05:43:54;6.90;;;3.28;;
44169;SDS011;29836;52.286;9.576;2022-12-15T05:46:20;8.18;;;3.88;;
44169;SDS011;29836;52.286;9.576;2022-12-15T05:48:45;9.43;;;4.22;;
44169;SDS011;29836;52.286;9.576;2022-12-15T05:51:11;8.63;;;3.55;;
44169;SDS011;29836;52.286;9.576;2022-12-15T05:53:38;7.40;;;3.28;;
44169;SDS011;29836;52.286;9.576;2022-12-15T05:56:05;6.43;;;3.20;;
44169;SDS011;29836;52.286;9.576;2022-12-15T05:58:32;12.43;;;3.88;;
44169;SDS011;29836;52.286;9.576;2022-12-15T06:01:02;6.35;;;3.97;;
44169;SDS011;29836;52.286;9.576;2022-12-15T06:03:28;4.28;;;2.58;;
44169;SDS011;29836;52.286;9.576;2022-12-15T06:05:55;7.63;;;4.05;;
44169;SDS011;29836;52.286;9.576;2022-12-15T06:08:21;6.60;;;3.00;;
44169;SDS011;29836;52.286;9.576;2022-12-15T06:10:54;6.50;;;3.70;;
44169;SDS011;29836;52.286;9.576;2022-12-15T06:13:20;10.82;;;4.20;;
44169;SDS011;29836;52.286;9.576;2022-12-15T06:15:57;12.77;;;3.63;;
44169;SDS011;29836;52.286;9.576;2022-12-15T06:18:31;9.55;;;3.97;;
44169;SDS011;29836;52.286;9.576;2022-12-15T06:20:59;8.15;;;3.40;;
44169;SDS011;29836;52.286;9.576;2022-12-15T06:23:27;10.27;;;4.13;;
44169;SDS011;29836;52.286;9.576;2022-12-15T06:25:54;8.57;;;4.07;;
44169;SDS011;29836;52.286;9.576;2022-12-15T06:28:20;9.27;;;3.50;;
44169;SDS011;29836;52.286;9.576;2022-12-15T06:30:49;5.82;;;3.47;;
44169;SDS011;29836;52.286;9.576;2022-12-15T06:33:16;10.40;;;4.38;;
44169;SDS011;29836;52.286;9.576;2022-12-15T06:35:42;11.68;;;4.90;;
44169;SDS011;29836;52.286;9.576;2022-12-15T06:38:11;8.68;;;4.10;;
44169;SDS011;29836;52.286;9.576;2022-12-15T06:40:37;9.80;;;3.67;;
44169;SDS011;29836;52.286;9.576;2022-12-15T06:43:05;11.45;;;4.15;;
44169;SDS011;29836;52.286;9.576;2022-12-15T06:45:31;8.07;;;3.47;;
44169;SDS011;29836;52.286;9.576;2022-12-15T06:47:57;9.02;;;4.70;;
44169;SDS011;29836;52.286;9.576;2022-12-15T06:50:22;10.40;;;4.30;;
44169;SDS011;29836;52.286;9.576;2022-12-15T06:52:48;17.92;;;5.47;;
44169;SDS011;29836;52.286;9.576;2022-12-15T06:55:13;9.48;;;4.07;;
44169;SDS011;29836;52.286;9.576;2022-12-15T06:57:39;10.60;;;3.92;;
44169;SDS011;29836;52.286;9.576;2022-12-15T07:00:05;11.10;;;3.75;;
44169;SDS011;29836;52.286;9.576;2022-12-15T07:02:32;7.22;;;3.97;;
44169;SDS011;29836;52.286;9.576;2022-12-15T07:04:58;6.65;;;3.75;;
44169;SDS011;29836;52.286;9.576;2022-12-15T07:07:24;6.30;;;3.95;;
44169;SDS011;29836;52.286;9.576;2022-12-15T07:09:50;10.27;;;4.47;;
44169;SDS011;29836;52.286;9.576;2022-12-15T07:12:16;14.07;;;4.10;;
44169;SDS011;29836;52.286;9.576;2022-12-15T07:14:41;8.15;;;4.40;;
44169;SDS011;29836;52.286;9.576;2022-12-15T07:17:07;9.68;;;4.03;;
44169;SDS011;29836;52.286;9.576;2022-12-15T07:19:34;9.57;;;4.65;;
44169;SDS011;29836;52.286;9.576;2022-12-15T07:22:00;9.65;;;4.53;;
44169;SDS011;29836;52.286;9.576;2022-12-15T07:24:26;7.05;;;3.63;;
44169;SDS011;29836;52.286;9.576;2022-12-15T07:26:52;10.82;;;4.78;;
44169;SDS011;29836;52.286;9.576;2022-12-15T07:29:17;8.73;;;3.95;;
44169;SDS011;29836;52.286;9.576;2022-12-15T07:31:43;10.73;;;5.00;;
44169;SDS011;29836;52.286;9.576;2022-12-15T07:34:09;9.93;;;5.25;;
44169;SDS011;29836;52.286;9.576;2022-12-15T07:36:35;12.60;;;5.00;;
44169;SDS011;29836;52.286;9.576;2022-12-15T07:39:01;11.68;;;5.32;;
44169;SDS011;29836;52.286;9.576;2022-12-15T07:41:28;8.40;;;5.20;;
44169;SDS011;29836;52.286;9.576;2022-12-15T07:43:54;11.88;;;4.85;;
44169;SDS011;29836;52.286;9.576;2022-12-15T07:46:20;10.23;;;4.88;;
44169;SDS011;29836;52.286;9.576;2022-12-15T07:48:46;11.60;;;4.50;;
44169;SDS011;29836;52.286;9.576;2022-12-15T07:51:12;10.40;;;4.97;;
44169;SDS011;29836;52.286;9.576;2022-12-15T07:53:37;8.82;;;4.38;;
44169;SDS011;29836;52.286;9.576;2022-12-15T07:56:04;10.95;;;4.38;;
44169;SDS011;29836;52.286;9.576;2022-12-15T07:58:30;12.90;;;5.53;;
44169;SDS011;29836;52.286;9.576;2022-12-15T08:00:59;7.70;;;4.32;;
44169;SDS011;29836;52.286;9.576;2022-12-15T08:03:26;9.93;;;4.90;;
44169;SDS011;29836;52.286;9.576;2022-12-15T08:05:53;11.98;;;5.30;;
44169;SDS011;29836;52.286;9.576;2022-12-15T08:08:19;8.15;;;4.55;;
44169;SDS011;29836;52.286;9.576;2022-12-15T08:10:46;9.27;;;4.47;;
44169;SDS011;29836;52.286;9.576;2022-12-15T08:13:12;13.80;;;6.70;;
44169;SDS011;29836;52.286;9.576;2022-12-15T08:15:38;11.02;;;4.82;;
44169;SDS011;29836;52.286;9.576;2022-12-15T08:18:04;12.48;;;5.00;;
44169;SDS011;29836;52.286;9.576;2022-12-15T08:20:31;10.35;;;5.35;;
44169;SDS011;29836;52.286;9.576;2022-12-15T08:22:58;8.80;;;4.18;;
44169;SDS011;29836;52.286;9.576;2022-12-15T08:25:24;7.90;;;4.28;;
44169;SDS011;29836;52.286;9.576;2022-12-15T08:27:52;10.85;;;4.60;;
44169;SDS011;29836;52.286;9.576;2022-12-15T08:30:19;9.57;;;4.50;;
44169;SDS011;29836;52.286;9.576;2022-12-15T08:32:45;8.73;;;4.28;;
44169;SDS011;29836;52.286;9.576;2022-12-15T08:35:11;11.95;;;4.53;;
44169;SDS011;29836;52.286;9.576;2022-12-15T08:37:37;8.90;;;4.10;;
44169;SDS011;29836;52.286;9.576;2022-12-15T08:40:03;9.10;;;4.53;;
44169;SDS011;29836;52.286;9.576;2022-12-15T08:42:33;7.35;;;3.80;;
44169;SDS011;29836;52.286;9.576;2022-12-15T08:45:00;11.25;;;4.25;;
44169;SDS011;29836;52.286;9.576;2022-12-15T08:47:25;10.32;;;4.78;;
44169;SDS011;29836;52.286;9.576;2022-12-15T08:49:51;9.40;;;4.03;;
44169;SDS011;29836;52.286;9.576;2022-12-15T08:52:18;6.93;;;3.47;;
44169;SDS011;29836;52.286;9.576;2022-12-15T08:54:44;7.90;;;4.50;;
44169;SDS011;29836;52.286;9.576;2022-12-15T08:57:10;7.30;;;3.72;;
44169;SDS011;29836;52.286;9.576;2022-12-15T08:59:36;9.55;;;3.65;;
44169;SDS011;29836;52.286;9.576;2022-12-15T09:02:01;8.85;;;3.80;;
44169;SDS011;29836;52.286;9.576;2022-12-15T09:04:27;7.28;;;3.83;;
44169;SDS011;29836;52.286;9.576;2022-12-15T09:06:52;7.25;;;3.55;;
44169;SDS011;29836;52.286;9.576;2022-12-15T09:09:18;6.53;;;3.58;;
44169;SDS011;29836;52.286;9.576;2022-12-15T09:11:44;6.25;;;3.38;;
44169;SDS011;29836;52.286;9.576;2022-12-15T09:14:09;6.90;;;3.75;;
44169;SDS011;29836;52.286;9.576;2022-12-15T09:16:35;10.35;;;3.83;;
44169;SDS011;29836;52.286;9.576;2022-12-15T09:19:01;7.95;;;4.13;;
44169;SDS011;29836;52.286;9.576;2022-12-15T09:21:27;6.50;;;4.05;;
44169;SDS011;29836;52.286;9.576;2022-12-15T09:23:55;7.47;;;4.25;;
44169;SDS011;29836;52.286;9.576;2022-12-15T09:26:24;6.90;;;4.00;;
44169;SDS011;29836;52.286;9.576;2022-12-15T09:28:50;6.75;;;4.07;;
44169;SDS011;29836;52.286;9.576;2022-12-15T09:31:18;8.18;;;4.10;;
44169;SDS011;29836;52.286;9.576;2022-12-15T09:33:45;7.60;;;3.70;;
44169;SDS011;29836;52.286;9.576;2022-12-15T09:36:11;8.77;;;3.70;;
44169;SDS011;29836;52.286;9.576;2022-12-15T09:38:38;8.93;;;4.38;;
44169;SDS011;29836;52.286;9.576;2022-12-15T09:41:08;13.27;;;3.70;;
44169;SDS011;29836;52.286;9.576;2022-12-15T09:43:53;6.22;;;3.25;;
44169;SDS011;29836;52.286;9.576;2022-12-15T09:48:58;6.70;;;3.30;;
44169;SDS011;29836;52.286;9.576;2022-12-15T09:51:30;7.45;;;3.88;;
44169;SDS011;29836;52.286;9.576;2022-12-15T09:54:00;8.00;;;3.53;;
44169;SDS011;29836;52.286;9.576;2022-12-15T09:56:31;9.88;;;3.28;;
44169;SDS011;29836;52.286;9.576;2022-12-15T10:02:27;8.43;;;4.50;;
44169;SDS011;29836;52.286;9.576;2022-12-15T10:07:43;6.35;;;3.70;;
44169;SDS011;29836;52.286;9.576;2022-12-15T10:12:48;9.07;;;4.28;;
44169;SDS011;29836;52.286;9.576;2022-12-15T10:15:19;7.97;;;3.50;;
44169;SDS011;29836;52.286;9.576;2022-12-15T10:17:51;5.70;;;3.30;;
44169;SDS011;29836;52.286;9.576;2022-12-15T10:20:40;7.35;;;3.65;;
44169;SDS011;29836;52.286;9.576;2022-12-15T10:23:09;7.75;;;4.13;;
44169;SDS011;29836;52.286;9.576;2022-12-15T10:25:37;7.50;;;3.78;;
44169;SDS011;29836;52.286;9.576;2022-12-15T10:28:11;6.97;;;3.72;;
44169;SDS011;29836;52.286;9.576;2022-12-15T10:33:56;6.70;;;3.67;;
44169;SDS011;29836;52.286;9.576;2022-12-15T10:36:33;11.80;;;4.15;;
44169;SDS011;29836;52.286;9.576;2022-12-15T10:38:59;6.90;;;3.65;;
44169;SDS011;29836;52.286;9.576;2022-12-15T10:41:26;11.82;;;4.03;;
44169;SDS011;29836;52.286;9.576;2022-12-15T10:43:56;8.77;;;3.63;;
44169;SDS011;29836;52.286;9.576;2022-12-15T10:46:23;7.13;;;3.50;;
44169;SDS011;29836;52.286;9.576;2022-12-15T10:51:34;6.65;;;3.58;;
44169;SDS011;29836;52.286;9.576;2022-12-15T10:56:33;8.18;;;4.13;;
44169;SDS011;29836;52.286;9.576;2022-12-15T10:59:01;9.70;;;4.32;;
44169;SDS011;29836;52.286;9.576;2022-12-15T11:01:29;8.00;;;3.80;;
44169;SDS011;29836;52.286;9.576;2022-12-15T11:03:57;7.18;;;3.70;;
44169;SDS011;29836;52.286;9.576;2022-12-15T11:06:27;7.38;;;3.45;;
44169;SDS011;29836;52.286;9.576;2022-12-15T11:09:07;7.97;;;4.28;;
44169;SDS011;29836;52.286;9.576;2022-12-15T11:11:54;9.00;;;4.32;;
44169;SDS011;29836;52.286;9.576;2022-12-15T11:14:42;9.30;;;4.03;;
44169;SDS011;29836;52.286;9.576;2022-12-15T11:17:19;8.73;;;4.82;;
44169;SDS011;29836;52.286;9.576;2022-12-15T11:19:51;8.07;;;3.97;;
44169;SDS011;29836;52.286;9.576;2022-12-15T11:22:42;11.32;;;4.22;;
44169;SDS011;29836;52.286;9.576;2022-12-15T11:25:27;9.63;;;3.83;;
44169;SDS011;29836;52.286;9.576;2022-12-15T11:28:08;6.28;;;2.92;;
44169;SDS011;29836;52.286;9.576;2022-12-15T11:33:35;11.68;;;3.72;;
44169;SDS011;29836;52.286;9.576;2022-12-15T11:36:09;10.70;;;4.20;;
44169;SDS011;29836;52.286;9.576;2022-12-15T11:38:40;9.80;;;4.25;;
44169;SDS011;29836;52.286;9.576;2022-12-15T11:41:31;6.55;;;3.60;;
44169;SDS011;29836;52.286;9.576;2022-12-15T11:58:19;8.45;;;5.00;;
44169;SDS011;29836;52.286;9.576;2022-12-15T12:01:17;15.77;;;5.80;;
44169;SDS011;29836;52.286;9.576;2022-12-15T12:06:37;11.48;;;5.25;;
44169;SDS011;29836;52.286;9.576;2022-12-15T12:12:01;20.52;;;4.45;;
44169;SDS011;29836;52.286;9.576;2022-12-15T12:17:25;9.35;;;3.90;;
44169;SDS011;29836;52.286;9.576;2022-12-15T12:19:57;11.13;;;4.50;;
44169;SDS011;29836;52.286;9.576;2022-12-15T12:25:04;8.55;;;4.88;;
44169;SDS011;29836;52.286;9.576;2022-12-15T12:27:44;7.95;;;4.47;;
44169;SDS011;29836;52.286;9.576;2022-12-15T12:30:17;8.82;;;4.03;;
44169;SDS011;29836;52.286;9.576;2022-12-15T12:32:52;9.75;;;4.07;;
44169;SDS011;29836;52.286;9.576;2022-12-15T12:38:06;9.50;;;4.15;;
44169;SDS011;29836;52.286;9.576;2022-12-15T12:43:04;11.65;;;4.43;;
44169;SDS011;29836;52.286;9.576;2022-12-15T12:48:13;8.90;;;4.28;;
44169;SDS011;29836;52.286;9.576;2022-12-15T12:50:45;9.32;;;4.50;;
44169;SDS011;29836;52.286;9.576;2022-12-15T12:53:31;8.25;;;3.97;;
44169;SDS011;29836;52.286;9.576;2022-12-15T12:55:58;8.65;;;4.43;;
44169;SDS011;29836;52.286;9.576;2022-12-15T12:58:30;7.15;;;4.00;;
44169;SDS011;29836;52.286;9.576;2022-12-15T13:03:30;10.80;;;4.93;;
44169;SDS011;29836;52.286;9.576;2022-12-15T13:05:56;7.97;;;4.18;;
44169;SDS011;29836;52.286;9.576;2022-12-15T13:08:26;11.50;;;5.25;;
44169;SDS011;29836;52.286;9.576;2022-12-15T13:14:40;7.65;;;3.38;;
44169;SDS011;29836;52.286;9.576;2022-12-15T13:17:13;10.25;;;3.95;;
44169;SDS011;29836;52.286;9.576;2022-12-15T13:24:50;7.53;;;3.30;;
44169;SDS011;29836;52.286;9.576;2022-12-15T13:27:16;9.07;;;4.13;;
44169;SDS011;29836;52.286;9.576;2022-12-15T13:37:46;7.63;;;3.63;;
44169;SDS011;29836;52.286;9.576;2022-12-15T13:45:29;7.72;;;3.45;;
44169;SDS011;29836;52.286;9.576;2022-12-15T13:47:57;10.20;;;4.65;;
44169;SDS011;29836;52.286;9.576;2022-12-15T13:50:30;8.80;;;3.63;;
44169;SDS011;29836;52.286;9.576;2022-12-15T13:53:02;9.38;;;4.10;;
44169;SDS011;29836;52.286;9.576;2022-12-15T13:55:38;5.72;;;3.20;;
44169;SDS011;29836;52.286;9.576;2022-12-15T13:58:13;10.15;;;4.55;;
44169;SDS011;29836;52.286;9.576;2022-12-15T14:00:50;16.42;;;4.03;;
44169;SDS011;29836;52.286;9.576;2022-12-15T14:03:21;8.07;;;4.53;;
44169;SDS011;29836;52.286;9.576;2022-12-15T14:05:57;8.38;;;4.55;;
44169;SDS011;29836;52.286;9.576;2022-12-15T14:08:24;8.00;;;4.50;;
44169;SDS011;29836;52.286;9.576;2022-12-15T14:10:55;6.35;;;3.60;;
44169;SDS011;29836;52.286;9.576;2022-12-15T14:15:54;9.93;;;4.63;;
44169;SDS011;29836;52.286;9.576;2022-12-15T14:18:29;10.30;;;4.82;;
44169;SDS011;29836;52.286;9.576;2022-12-15T14:20:57;11.32;;;4.55;;
44169;SDS011;29836;52.286;9.576;2022-12-15T14:23:25;9.60;;;4.47;;
44169;SDS011;29836;52.286;9.576;2022-12-15T14:26:05;11.70;;;4.85;;
44169;SDS011;29836;52.286;9.576;2022-12-15T14:28:34;12.63;;;4.25;;
44169;SDS011;29836;52.286;9.576;2022-12-15T14:31:14;6.38;;;3.85;;
44169;SDS011;29836;52.286;9.576;2022-12-15T14:33:44;8.93;;;4.35;;
44169;SDS011;29836;52.286;9.576;2022-12-15T14:36:12;13.40;;;4.80;;
44169;SDS011;29836;52.286;9.576;2022-12-15T14:38:43;6.70;;;3.97;;
44169;SDS011;29836;52.286;9.576;2022-12-15T14:41:21;11.63;;;4.65;;
44169;SDS011;29836;52.286;9.576;2022-12-15T14:43:49;9.80;;;4.57;;
44169;SDS011;29836;52.286;9.576;2022-12-15T14:46:17;6.20;;;3.58;;
44169;SDS011;29836;52.286;9.576;2022-12-15T14:48:56;9.45;;;3.80;;
44169;SDS011;29836;52.286;9.576;2022-12-15T14:51:23;9.68;;;4.53;;
44169;SDS011;29836;52.286;9.576;2022-12-15T14:53:51;8.25;;;4.00;;
44169;SDS011;29836;52.286;9.576;2022-12-15T14:58:56;11.10;;;4.65;;
44169;SDS011;29836;52.286;9.576;2022-12-15T15:04:06;11.35;;;5.55;;
44169;SDS011;29836;52.286;9.576;2022-12-15T15:06:45;11.82;;;5.22;;
44169;SDS011;29836;52.286;9.576;2022-12-15T15:09:25;10.05;;;4.35;;
44169;SDS011;29836;52.286;9.576;2022-12-15T15:12:12;8.18;;;4.38;;
44169;SDS011;29836;52.286;9.576;2022-12-15T15:14:44;9.02;;;4.03;;
44169;SDS011;29836;52.286;9.576;2022-12-15T15:22:32;11.20;;;4.25;;
44169;SDS011;29836;52.286;9.576;2022-12-15T15:25:00;10.10;;;4.40;;
44169;SDS011;29836;52.286;9.576;2022-12-15T15:27:34;9.88;;;3.63;;
44169;SDS011;29836;52.286;9.576;2022-12-15T15:30:17;14.88;;;5.75;;
44169;SDS011;29836;52.286;9.576;2022-12-15T15:32:48;11.68;;;6.10;;
44169;SDS011;29836;52.286;9.576;2022-12-15T15:35:18;10.35;;;4.72;;
44169;SDS011;29836;52.286;9.576;2022-12-15T15:37:44;8.63;;;5.55;;
44169;SDS011;29836;52.286;9.576;2022-12-15T15:40:11;11.25;;;5.07;;
44169;SDS011;29836;52.286;9.576;2022-12-15T15:42:40;10.35;;;4.70;;
44169;SDS011;29836;52.286;9.576;2022-12-15T15:45:15;11.80;;;5.55;;
44169;SDS011;29836;52.286;9.576;2022-12-15T15:47:41;6.85;;;3.58;;
44169;SDS011;29836;52.286;9.576;2022-12-15T15:50:12;11.15;;;5.20;;
44169;SDS011;29836;52.286;9.576;2022-12-15T15:52:40;15.07;;;5.75;;
44169;SDS011;29836;52.286;9.576;2022-12-15T15:55:11;11.23;;;5.70;;
44169;SDS011;29836;52.286;9.576;2022-12-15T15:57:44;10.52;;;5.40;;
44169;SDS011;29836;52.286;9.576;2022-12-15T16:00:18;12.43;;;6.05;;
44169;SDS011;29836;52.286;9.576;2022-12-15T16:02:46;13.05;;;6.03;;
44169;SDS011;29836;52.286;9.576;2022-12-15T16:05:11;12.55;;;5.97;;
44169;SDS011;29836;52.286;9.576;2022-12-15T16:07:37;9.30;;;5.47;;
44169;SDS011;29836;52.286;9.576;2022-12-15T16:10:05;21.75;;;5.90;;
44169;SDS011;29836;52.286;9.576;2022-12-15T16:12:40;9.50;;;4.38;;
44169;SDS011;29836;52.286;9.576;2022-12-15T16:15:12;13.43;;;4.90;;
44169;SDS011;29836;52.286;9.576;2022-12-15T16:17:45;8.85;;;4.90;;
44169;SDS011;29836;52.286;9.576;2022-12-15T16:20:12;13.88;;;5.55;;
44169;SDS011;29836;52.286;9.576;2022-12-15T16:22:39;10.07;;;5.22;;
44169;SDS011;29836;52.286;9.576;2022-12-15T16:25:12;20.88;;;7.20;;
44169;SDS011;29836;52.286;9.576;2022-12-15T16:27:39;19.02;;;6.70;;
44169;SDS011;29836;52.286;9.576;2022-12-15T16:30:24;17.45;;;7.75;;
44169;SDS011;29836;52.286;9.576;2022-12-15T16:32:51;21.08;;;8.60;;
44169;SDS011;29836;52.286;9.576;2022-12-15T16:35:18;10.57;;;6.28;;
44169;SDS011;29836;52.286;9.576;2022-12-15T16:37:44;25.35;;;9.93;;
44169;SDS011;29836;52.286;9.576;2022-12-15T16:40:20;20.75;;;11.10;;
44169;SDS011;29836;52.286;9.576;2022-12-15T16:42:52;22.65;;;9.52;;
44169;SDS011;29836;52.286;9.576;2022-12-15T16:45:23;20.60;;;8.95;;
44169;SDS011;29836;52.286;9.576;2022-12-15T16:47:51;14.63;;;6.88;;
44169;SDS011;29836;52.286;9.576;2022-12-15T16:50:18;12.98;;;5.88;;
44169;SDS011;29836;52.286;9.576;2022-12-15T16:52:47;19.38;;;7.47;;
44169;SDS011;29836;52.286;9.576;2022-12-15T16:55:18;16.38;;;5.30;;
44169;SDS011;29836;52.286;9.576;2022-12-15T16:57:49;13.77;;;6.50;;
44169;SDS011;29836;52.286;9.576;2022-12-15T17:00:22;13.77;;;5.95;;
44169;SDS011;29836;52.286;9.576;2022-12-15T17:02:55;13.15;;;6.50;;
44169;SDS011;29836;52.286;9.576;2022-12-15T17:05:23;8.40;;;4.07;;